Time;durP1;ratioP1;P1;durP2;ratioP2;P2;SDS_P1;SDS_P2;PMS_P1;PMS_P2;Temp;Humidity;BMP_temperature;BMP_pressure;BME280_temperature;BME280_humidity;BME280_pressure;Samples;Min_cycle;Max_cycle;Signal;HPM_P1;HPM_P2
2022/11/10 00:00:19;;;;;;;51.95;31.88;;;9.70;99.90;;;;;;5074756;28;20224;-83
2022/11/10 00:03:27;;;;;;;49.80;30.85;;;9.60;99.90;;;;;;5057899;28;20224;-83
2022/11/10 00:06:35;;;;;;;49.42;31.08;;;9.70;99.90;;;;;;5073626;28;20669;-83
2022/11/10 00:09:43;;;;;;;49.70;30.52;;;9.60;99.90;;;;;;5080966;28;20276;-82
2022/11/10 00:12:51;;;;;;;52.22;30.75;;;9.70;99.90;;;;;;5077776;28;20314;-83
2022/11/10 00:19:28;;;;;;;49.83;30.70;;;9.70;99.90;;;;;;5075487;28;20264;-84
2022/11/10 00:22:38;;;;;;;51.17;31.35;;;9.60;99.90;;;;;;5056659;28;20273;-82
2022/11/10 00:25:45;;;;;;;55.97;31.50;;;9.50;99.90;;;;;;5069723;28;20211;-84
2022/11/10 00:28:53;;;;;;;52.22;30.92;;;9.70;99.90;;;;;;5055508;28;20224;-80
2022/11/10 00:32:00;;;;;;;51.85;29.88;;;9.70;99.90;;;;;;5063610;28;20223;-80
2022/11/10 00:35:08;;;;;;;49.28;31.58;;;9.60;99.90;;;;;;5078603;28;20636;-80
2022/11/10 00:38:17;;;;;;;54.85;30.75;;;9.60;99.90;;;;;;5078382;28;20212;-79
2022/11/10 00:41:25;;;;;;;47.63;30.25;;;9.60;99.90;;;;;;5071207;28;20215;-80
2022/11/10 00:44:32;;;;;;;50.60;31.30;;;9.60;99.90;;;;;;5074087;28;20306;-79
2022/11/10 00:47:39;;;;;;;49.42;31.05;;;9.60;99.90;;;;;;5081034;28;20212;-78
2022/11/10 00:50:46;;;;;;;56.38;30.80;;;9.60;99.90;;;;;;5080703;28;20223;-80
2022/11/10 00:53:55;;;;;;;48.25;30.25;;;9.70;99.90;;;;;;5077668;28;20227;-81
2022/11/10 00:57:02;;;;;;;52.47;31.77;;;9.70;99.90;;;;;;5084127;28;20649;-82
2022/11/10 01:00:10;;;;;;;46.25;30.02;;;9.70;99.90;;;;;;5075833;28;20280;-81
2022/11/10 01:03:18;;;;;;;48.75;29.65;;;9.60;99.90;;;;;;5074824;28;21766;-82
2022/11/10 01:06:26;;;;;;;49.17;29.65;;;9.70;99.90;;;;;;5083733;28;20223;-83
2022/11/10 01:09:34;;;;;;;51.35;31.02;;;9.70;99.90;;;;;;5083567;28;20215;-84
2022/11/10 01:12:42;;;;;;;47.70;29.83;;;9.70;99.90;;;;;;5083162;28;20659;-84
2022/11/10 01:15:49;;;;;;;53.85;31.58;;;9.70;99.90;;;;;;5082140;28;20623;-83
2022/11/10 01:18:57;;;;;;;48.97;29.88;;;9.70;99.90;;;;;;5083285;28;20215;-84
2022/11/10 01:22:05;;;;;;;52.60;32.38;;;9.70;99.90;;;;;;5085238;28;20223;-80
2022/11/10 01:25:13;;;;;;;49.85;30.48;;;9.70;99.90;;;;;;5062202;28;20248;-80
2022/11/10 01:28:21;;;;;;;48.53;30.15;;;9.80;99.90;;;;;;5063295;28;20657;-80
2022/11/10 01:31:28;;;;;;;53.03;30.40;;;9.80;99.90;;;;;;5057809;28;20231;-80
2022/11/10 01:34:35;;;;;;;48.80;29.70;;;9.90;99.90;;;;;;5060056;28;20891;-79
2022/11/10 01:37:43;;;;;;;48.55;30.25;;;9.80;99.90;;;;;;5082048;28;20310;-79
2022/11/10 01:40:52;;;;;;;50.08;30.88;;;9.80;99.90;;;;;;5073570;28;20231;-79
2022/11/10 01:44:17;;;;;;;49.20;31.63;;;9.90;99.90;;;;;;5078212;28;20306;-79
2022/11/10 01:47:25;;;;;;;53.55;31.05;;;9.80;99.90;;;;;;5060997;28;21166;-80
2022/11/10 01:50:37;;;;;;;48.33;29.27;;;9.80;99.90;;;;;;5082327;28;20215;-78
2022/11/10 01:53:49;;;;;;;54.30;31.00;;;9.90;99.90;;;;;;5078255;28;20729;-80
2022/11/10 01:57:00;;;;;;;52.28;30.90;;;9.90;99.90;;;;;;5079008;28;20230;-79
2022/11/10 02:00:09;;;;;;;54.08;31.92;;;9.90;99.90;;;;;;5083027;28;20309;-77
2022/11/10 02:03:23;;;;;;;54.95;31.05;;;9.90;99.90;;;;;;5078605;28;20744;-82
2022/11/10 02:06:34;;;;;;;47.80;30.63;;;9.80;99.90;;;;;;5084765;28;20314;-79
2022/11/10 02:09:41;;;;;;;51.40;31.20;;;9.90;99.90;;;;;;5083271;28;20223;-81
2022/11/10 02:12:50;;;;;;;53.00;31.05;;;9.90;99.90;;;;;;5084034;28;20222;-81
2022/11/10 02:15:58;;;;;;;48.30;31.02;;;9.90;99.90;;;;;;5086012;28;20674;-79
2022/11/10 02:19:17;;;;;;;51.70;30.98;;;9.90;99.90;;;;;;5077381;28;20223;-80
2022/11/10 02:22:25;;;;;;;52.72;30.67;;;9.80;99.90;;;;;;5084278;28;20227;-83
2022/11/10 02:25:32;;;;;;;50.40;31.17;;;9.90;99.90;;;;;;5084361;28;20234;-83
2022/11/10 02:28:40;;;;;;;53.30;31.17;;;10.00;99.90;;;;;;5080658;28;20321;-83
2022/11/10 02:31:47;;;;;;;53.08;31.98;;;10.00;99.90;;;;;;5078687;28;20220;-82
2022/11/10 02:34:54;;;;;;;52.35;30.38;;;9.90;99.90;;;;;;5079117;28;20260;-82
2022/11/10 02:38:03;;;;;;;55.92;32.13;;;10.00;99.90;;;;;;5077287;28;20836;-83
2022/11/10 02:41:09;;;;;;;50.40;30.88;;;10.00;99.90;;;;;;5078829;28;20639;-82
2022/11/10 02:44:16;;;;;;;53.03;31.70;;;10.00;99.90;;;;;;5079385;28;20227;-79
2022/11/10 02:47:23;;;;;;;51.15;30.05;;;10.00;99.90;;;;;;5075769;28;20227;-79
2022/11/10 02:50:30;;;;;;;51.70;30.48;;;10.10;99.90;;;;;;5067059;28;20710;-78
2022/11/10 02:53:39;;;;;;;48.63;30.77;;;10.00;99.90;;;;;;5067963;28;20248;-78
2022/11/10 02:56:46;;;;;;;49.67;30.80;;;10.10;99.90;;;;;;5079351;28;20717;-78
2022/11/10 02:59:53;;;;;;;50.90;30.98;;;10.10;99.90;;;;;;5078593;28;20231;-79
2022/11/10 03:03:02;;;;;;;52.17;31.95;;;10.10;99.90;;;;;;5083071;28;20250;-78
2022/11/10 03:06:09;;;;;;;52.80;30.95;;;10.10;99.90;;;;;;5081260;28;20614;-77
2022/11/10 03:09:17;;;;;;;52.63;31.52;;;10.10;99.90;;;;;;5075334;28;20298;-78
2022/11/10 03:12:25;;;;;;;45.63;30.17;;;10.10;99.90;;;;;;5083497;28;20336;-79
2022/11/10 03:15:32;;;;;;;47.80;30.92;;;10.20;99.90;;;;;;5081649;28;20964;-79
2022/11/10 03:18:39;;;;;;;52.67;30.90;;;10.30;99.90;;;;;;5078539;28;20211;-78
2022/11/10 03:21:46;;;;;;;48.95;30.98;;;10.40;99.90;;;;;;5080845;28;20211;-78
2022/11/10 03:24:55;;;;;;;52.40;30.45;;;10.30;99.90;;;;;;5078426;28;20227;-78
2022/11/10 03:28:02;;;;;;;55.88;32.33;;;10.30;99.90;;;;;;5073266;28;20232;-78
2022/11/10 03:31:08;;;;;;;53.83;32.20;;;10.20;99.90;;;;;;5080728;28;20234;-77
2022/11/10 03:34:15;;;;;;;49.75;30.58;;;10.30;99.90;;;;;;5060369;28;20247;-79
2022/11/10 03:37:22;;;;;;;52.55;31.65;;;10.40;99.90;;;;;;5060431;28;20717;-79
2022/11/10 03:40:31;;;;;;;52.13;31.27;;;10.40;99.90;;;;;;5057906;28;20695;-79
2022/11/10 03:43:58;;;;;;;50.85;30.17;;;10.40;99.90;;;;;;5070443;28;20227;-82
2022/11/10 03:47:05;;;;;;;51.72;31.98;;;10.50;99.90;;;;;;5079206;28;20621;-81
2022/11/10 03:50:12;;;;;;;52.40;31.55;;;10.40;99.90;;;;;;5079572;28;20338;-79
2022/11/10 03:53:19;;;;;;;49.53;31.15;;;10.30;99.90;;;;;;5084388;28;20324;-81
2022/11/10 03:56:28;;;;;;;51.92;30.83;;;10.30;99.90;;;;;;5080195;28;20327;-81
2022/11/10 03:59:35;;;;;;;56.63;32.28;;;10.30;99.90;;;;;;5075332;28;20645;-80
2022/11/10 04:02:42;;;;;;;55.63;31.73;;;10.30;99.90;;;;;;5077163;28;20585;-81
2022/11/10 04:09:11;;;;;;;49.63;30.48;;;10.40;99.90;;;;;;5048693;28;20265;-81
2022/11/10 04:15:44;;;;;;;55.20;32.85;;;10.60;99.90;;;;;;5080134;28;20230;-82
2022/11/10 04:18:51;;;;;;;52.13;31.85;;;10.60;99.90;;;;;;5074057;28;20278;-81
2022/11/10 04:21:58;;;;;;;54.67;32.13;;;10.50;99.90;;;;;;5070811;28;20345;-83
2022/11/10 04:25:06;;;;;;;55.65;32.10;;;10.50;99.90;;;;;;5081887;28;20302;-81
2022/11/10 04:28:15;;;;;;;50.30;30.40;;;10.50;99.90;;;;;;5082200;28;20220;-81
2022/11/10 04:31:23;;;;;;;53.28;31.88;;;10.50;99.90;;;;;;5080835;28;20305;-82
2022/11/10 04:34:30;;;;;;;55.40;32.55;;;10.50;99.90;;;;;;5056093;28;20303;-78
2022/11/10 04:37:37;;;;;;;52.13;32.65;;;10.50;99.90;;;;;;5075591;28;20236;-79
2022/11/10 04:40:44;;;;;;;55.00;32.63;;;10.50;99.90;;;;;;5063819;28;20227;-80
2022/11/10 04:43:53;;;;;;;55.78;32.60;;;10.50;99.90;;;;;;5064971;28;20219;-82
2022/11/10 04:47:00;;;;;;;53.92;32.00;;;10.60;99.90;;;;;;5065402;28;20217;-82
2022/11/10 04:50:08;;;;;;;55.30;33.08;;;10.50;99.90;;;;;;5064280;28;20216;-82
2022/11/10 04:53:15;;;;;;;56.92;32.88;;;10.60;99.90;;;;;;5059883;28;20231;-82
2022/11/10 04:56:23;;;;;;;52.30;32.60;;;10.60;99.90;;;;;;5079579;28;20208;-78
2022/11/10 04:59:32;;;;;;;57.30;32.28;;;10.60;99.90;;;;;;5067136;28;20295;-76
2022/11/10 05:02:39;;;;;;;57.03;32.97;;;10.60;99.90;;;;;;5080355;28;20223;-79
2022/11/10 05:05:48;;;;;;;55.88;33.47;;;10.60;99.90;;;;;;5078905;28;20250;-79
2022/11/10 05:08:54;;;;;;;55.85;32.08;;;10.70;99.90;;;;;;5080668;28;20262;-81
2022/11/10 05:12:01;;;;;;;55.47;32.92;;;10.70;99.90;;;;;;5078867;28;20314;-81
2022/11/10 05:15:11;;;;;;;57.38;33.28;;;10.70;99.90;;;;;;5077335;28;20220;-80
2022/11/10 05:18:18;;;;;;;54.13;32.47;;;10.80;99.90;;;;;;5065788;28;20288;-81
2022/11/10 05:21:26;;;;;;;60.28;35.28;;;10.80;99.90;;;;;;5080715;28;20251;-80
2022/11/10 05:24:33;;;;;;;60.55;34.67;;;10.90;99.90;;;;;;5079482;28;20249;-81
2022/11/10 05:27:41;;;;;;;57.05;32.42;;;10.80;99.90;;;;;;5082718;28;20814;-81
2022/11/10 05:30:49;;;;;;;57.85;33.30;;;10.70;99.90;;;;;;5088459;28;20725;-81
2022/11/10 05:33:57;;;;;;;57.58;33.67;;;10.70;99.90;;;;;;5063668;28;20251;-82
2022/11/10 05:37:04;;;;;;;56.38;32.58;;;10.80;99.90;;;;;;5083677;28;20227;-83
2022/11/10 05:40:11;;;;;;;64.60;34.25;;;10.80;99.90;;;;;;5083075;28;20211;-81
2022/11/10 05:43:19;;;;;;;63.80;34.47;;;10.70;99.90;;;;;;5083829;28;20326;-80
2022/11/10 05:46:27;;;;;;;57.25;33.78;;;10.70;99.90;;;;;;5082907;28;20225;-81
2022/11/10 05:49:34;;;;;;;62.60;33.38;;;10.80;99.90;;;;;;5079792;28;20223;-82
2022/11/10 05:52:44;;;;;;;63.60;35.40;;;10.80;99.90;;;;;;5082421;28;20301;-82
2022/11/10 05:55:56;;;;;;;66.45;36.60;;;10.80;99.90;;;;;;5082316;28;20234;-83
2022/11/10 05:59:03;;;;;;;72.40;35.35;;;10.70;99.90;;;;;;5083092;28;20231;-80
2022/11/10 06:02:12;;;;;;;66.82;35.88;;;10.80;99.90;;;;;;5067832;28;20231;-83
2022/11/10 06:05:19;;;;;;;64.88;35.60;;;10.80;99.90;;;;;;5077388;28;20284;-82
2022/11/10 06:08:26;;;;;;;67.68;35.55;;;10.80;99.90;;;;;;5087661;28;20298;-82
2022/11/10 06:11:32;;;;;;;63.00;35.72;;;10.70;99.90;;;;;;5078685;28;20749;-81
2022/11/10 06:14:40;;;;;;;65.47;34.78;;;10.80;99.90;;;;;;5077046;28;20302;-85
2022/11/10 06:17:49;;;;;;;65.30;35.72;;;10.80;99.90;;;;;;5081414;28;20215;-83
2022/11/10 06:20:56;;;;;;;61.20;34.70;;;10.80;99.90;;;;;;5058162;28;20239;-80
2022/11/10 06:24:03;;;;;;;66.93;34.25;;;10.80;99.90;;;;;;5080326;28;21055;-80
2022/11/10 06:27:10;;;;;;;62.35;35.20;;;10.90;99.90;;;;;;5078724;28;20213;-81
2022/11/10 06:30:17;;;;;;;61.40;34.40;;;10.90;99.90;;;;;;5078652;28;20211;-80
2022/11/10 06:33:26;;;;;;;63.80;34.13;;;11.00;99.90;;;;;;5080080;28;20223;-79
2022/11/10 06:36:33;;;;;;;64.70;34.60;;;11.00;99.90;;;;;;5078802;28;20220;-79
2022/11/10 06:39:40;;;;;;;60.05;33.60;;;11.00;99.90;;;;;;5074728;28;20216;-79
2022/11/10 06:42:47;;;;;;;65.57;35.33;;;11.00;99.90;;;;;;5081582;28;20219;-79
2022/11/10 06:45:54;;;;;;;60.70;33.47;;;11.00;99.90;;;;;;5085999;28;20227;-80
2022/11/10 06:49:03;;;;;;;64.85;33.78;;;11.10;99.90;;;;;;5080747;28;20219;-81
2022/11/10 06:52:10;;;;;;;60.70;34.40;;;11.00;99.90;;;;;;5078698;28;20223;-80
2022/11/10 06:55:17;;;;;;;61.45;34.45;;;11.00;99.90;;;;;;5085881;28;20218;-91
2022/11/10 06:58:25;;;;;;;61.40;34.17;;;11.00;99.90;;;;;;5077341;28;20801;-80
2022/11/10 07:01:32;;;;;;;59.55;32.63;;;11.10;99.90;;;;;;5069448;28;20239;-80
2022/11/10 07:04:41;;;;;;;63.83;35.65;;;11.10;99.90;;;;;;5078707;28;20564;-79
2022/11/10 07:07:48;;;;;;;62.50;34.15;;;11.10;99.90;;;;;;5067265;28;20215;-85
2022/11/10 07:10:56;;;;;;;64.15;35.15;;;11.10;99.90;;;;;;5085034;28;20223;-85
2022/11/10 07:14:03;;;;;;;58.92;33.08;;;11.10;99.90;;;;;;5081335;28;20812;-85
2022/11/10 07:17:10;;;;;;;59.83;33.50;;;11.10;99.90;;;;;;5074032;28;20311;-86
2022/11/10 07:20:19;;;;;;;59.70;32.55;;;11.10;99.90;;;;;;5062966;28;20311;-85
2022/11/10 07:23:25;;;;;;;62.13;33.75;;;11.20;99.90;;;;;;5067393;28;20216;-86
2022/11/10 07:26:33;;;;;;;59.78;33.50;;;11.20;99.90;;;;;;5070671;28;20227;-91
2022/11/10 07:29:40;;;;;;;57.30;31.40;;;11.20;99.90;;;;;;5070802;28;20294;-90
2022/11/10 07:32:47;;;;;;;61.00;32.60;;;11.20;99.90;;;;;;5070682;28;20223;-89
2022/11/10 07:35:57;;;;;;;64.35;35.70;;;11.20;99.90;;;;;;5088692;28;20234;-87
2022/11/10 07:39:04;;;;;;;65.72;36.13;;;11.20;99.90;;;;;;5086044;28;20227;-89
2022/11/10 07:42:11;;;;;;;63.67;35.72;;;11.30;99.90;;;;;;5082147;28;20709;-84
2022/11/10 07:45:18;;;;;;;60.55;33.60;;;11.20;99.90;;;;;;5060198;28;20643;-80
2022/11/10 07:48:25;;;;;;;64.90;33.75;;;11.30;99.90;;;;;;5057292;28;20311;-80
2022/11/10 07:51:33;;;;;;;63.78;33.80;;;11.30;99.90;;;;;;5079811;28;20311;-80
2022/11/10 07:54:40;;;;;;;62.92;33.92;;;11.30;99.90;;;;;;5077117;28;20220;-80
2022/11/10 07:57:48;;;;;;;60.05;33.00;;;11.40;99.90;;;;;;5081210;28;20223;-81
2022/11/10 08:00:55;;;;;;;59.92;33.47;;;11.50;99.90;;;;;;5070568;28;20224;-81
2022/11/10 08:04:02;;;;;;;58.67;32.80;;;11.50;99.90;;;;;;5062040;28;20244;-80
2022/11/10 08:07:11;;;;;;;58.50;32.30;;;11.50;99.90;;;;;;5083007;28;20236;-81
2022/11/10 08:10:18;;;;;;;56.47;31.38;;;11.50;99.90;;;;;;5079900;28;20227;-80
2022/11/10 08:13:25;;;;;;;62.00;31.88;;;11.50;99.90;;;;;;5083374;28;21057;-88
2022/11/10 08:16:32;;;;;;;57.35;30.60;;;11.50;99.90;;;;;;5079669;28;20230;-79
2022/11/10 08:19:40;;;;;;;56.60;31.30;;;11.50;99.90;;;;;;5082618;28;20219;-79
2022/11/10 08:22:48;;;;;;;55.00;29.50;;;11.50;99.90;;;;;;5082556;28;20226;-80
2022/11/10 08:25:58;;;;;;;57.55;31.23;;;11.60;99.90;;;;;;5082179;28;20587;-79
2022/11/10 08:29:06;;;;;;;54.40;29.95;;;11.60;99.90;;;;;;5081268;28;20231;-80
2022/11/10 08:32:13;;;;;;;56.50;29.95;;;11.60;99.90;;;;;;5074441;28;20724;-79
2022/11/10 08:35:20;;;;;;;55.60;30.02;;;11.60;99.90;;;;;;5063127;28;20216;-81
2022/11/10 08:38:28;;;;;;;56.65;29.58;;;11.70;99.90;;;;;;5063047;28;20216;-81
2022/11/10 08:41:35;;;;;;;49.13;27.77;;;11.60;99.90;;;;;;5060264;28;20216;-80
2022/11/10 08:44:42;;;;;;;51.03;27.83;;;11.70;99.90;;;;;;5069098;28;20235;-80
2022/11/10 08:47:56;;;;;;;51.75;28.60;;;11.70;99.90;;;;;;5062768;28;20220;-81
2022/11/10 08:51:04;;;;;;;52.15;27.20;;;11.70;99.90;;;;;;5083018;28;20272;-81
2022/11/10 08:54:12;;;;;;;48.55;27.67;;;11.70;99.90;;;;;;5084313;28;20270;-80
2022/11/10 08:57:19;;;;;;;48.22;27.17;;;11.80;99.90;;;;;;5080678;28;20314;-80
2022/11/10 09:00:28;;;;;;;45.20;25.52;;;11.90;99.90;;;;;;5081878;28;20215;-81
2022/11/10 09:03:35;;;;;;;49.22;27.10;;;11.90;99.90;;;;;;5062446;28;20220;-81
2022/11/10 09:06:42;;;;;;;47.47;26.88;;;11.90;99.90;;;;;;5085402;28;20251;-82
2022/11/10 09:09:51;;;;;;;45.78;26.00;;;11.80;99.90;;;;;;5076448;28;20768;-80
2022/11/10 09:13:15;;;;;;;46.25;26.95;;;11.80;99.90;;;;;;5081889;28;20702;-80
2022/11/10 09:16:22;;;;;;;48.30;25.95;;;11.90;99.90;;;;;;5081967;28;20235;-79
2022/11/10 09:19:29;;;;;;;47.20;26.23;;;11.90;99.90;;;;;;5082109;28;20223;-80
2022/11/10 09:22:37;;;;;;;49.67;26.73;;;11.80;99.90;;;;;;5079040;28;20302;-80
2022/11/10 09:25:50;;;;;;;43.40;26.40;;;11.90;99.90;;;;;;5083746;28;20219;-81
2022/11/10 09:28:57;;;;;;;46.47;26.77;;;11.90;99.90;;;;;;5082599;28;20228;-80
2022/11/10 09:32:04;;;;;;;46.25;26.45;;;11.90;99.90;;;;;;5079789;28;20251;-81
2022/11/10 09:35:12;;;;;;;47.97;26.95;;;12.00;99.90;;;;;;5076859;28;20230;-79
2022/11/10 09:38:19;;;;;;;48.10;26.90;;;12.00;99.90;;;;;;5066823;28;20228;-80
2022/11/10 09:41:29;;;;;;;42.88;25.52;;;12.00;99.90;;;;;;5083190;28;20227;-83
2022/11/10 09:44:45;;;;;;;50.05;26.02;;;12.10;99.90;;;;;;5082235;28;20270;-79
2022/11/10 09:48:00;;;;;;;43.92;25.52;;;12.10;99.90;;;;;;5079283;28;20310;-78
2022/11/10 09:51:12;;;;;;;45.33;26.88;;;12.00;99.90;;;;;;5075311;28;20718;-79
2022/11/10 09:54:32;;;;;;;44.70;25.27;;;12.20;99.90;;;;;;5068900;28;20223;-82
2022/11/10 09:57:43;;;;;;;40.70;25.35;;;12.20;99.90;;;;;;5069499;28;20223;-81
2022/11/10 10:01:11;;;;;;;44.75;27.10;;;12.10;99.90;;;;;;5063099;28;20312;-82
2022/11/10 10:04:36;;;;;;;45.67;26.30;;;12.20;99.90;;;;;;5067701;28;20215;-82
2022/11/10 10:07:51;;;;;;;39.47;24.45;;;12.10;99.90;;;;;;5075990;28;20227;-80
2022/11/10 10:11:13;;;;;;;42.70;25.92;;;12.20;99.90;;;;;;5079555;28;20318;-82
2022/11/10 10:14:56;;;;;;;47.65;26.98;;;12.20;99.90;;;;;;5079651;28;20603;-81
2022/11/10 10:18:16;;;;;;;44.60;25.95;;;12.20;99.90;;;;;;5080307;28;20223;-82
2022/11/10 10:21:44;;;;;;;45.05;26.13;;;12.20;99.90;;;;;;5082932;28;20258;-82
2022/11/10 10:24:56;;;;;;;43.15;26.17;;;12.30;99.90;;;;;;5071372;28;20311;-83
2022/11/10 10:28:12;;;;;;;38.33;26.38;;;12.40;99.90;;;;;;5073091;28;21097;-82
2022/11/10 10:31:23;;;;;;;42.95;26.70;;;12.40;99.90;;;;;;5079418;28;20306;-83
2022/11/10 10:34:33;;;;;;;46.80;27.00;;;12.50;99.90;;;;;;5077386;28;20301;-82
2022/11/10 10:37:44;;;;;;;40.78;25.77;;;12.50;99.90;;;;;;5080452;28;20223;-83
2022/11/10 10:40:52;;;;;;;34.90;24.27;;;12.60;99.90;;;;;;5077539;28;20291;-83
2022/11/10 10:44:01;;;;;;;43.40;25.33;;;12.70;99.90;;;;;;5067473;28;20224;-83
2022/11/10 10:47:08;;;;;;;41.50;24.60;;;12.80;99.90;;;;;;5061352;28;20240;-83
2022/11/10 10:50:23;;;;;;;35.00;22.77;;;12.70;99.90;;;;;;5075200;28;20710;-82
2022/11/10 10:53:31;;;;;;;37.50;23.58;;;12.80;99.90;;;;;;5081366;28;20231;-80
2022/11/10 10:56:38;;;;;;;37.00;23.67;;;12.90;99.90;;;;;;5077791;28;20215;-82
2022/11/10 10:59:45;;;;;;;36.80;22.85;;;12.70;99.90;;;;;;5078352;28;20613;-82
2022/11/10 11:03:01;;;;;;;34.10;22.70;;;12.80;99.90;;;;;;5081803;28;20228;-82
2022/11/10 11:06:24;;;;;;;35.22;22.45;;;12.80;99.90;;;;;;5082444;28;20326;-82
2022/11/10 11:09:40;;;;;;;33.45;22.60;;;12.90;99.90;;;;;;5078460;28;20367;-82
2022/11/10 11:12:47;;;;;;;35.45;22.95;;;13.00;99.90;;;;;;5080089;28;20723;-81
2022/11/10 11:16:00;;;;;;;30.40;21.55;;;12.90;99.90;;;;;;5081243;28;22425;-83
2022/11/10 11:19:08;;;;;;;31.25;22.10;;;13.00;99.90;;;;;;5080987;28;20239;-82
2022/11/10 11:22:42;;;;;;;34.28;22.13;;;13.00;99.90;;;;;;5079006;28;20321;-79
2022/11/10 15:54:57;;;;;;;27.65;16.55;;;12.10;99.90;;;;;;5006762;27;20644;-82
2022/11/10 15:58:08;;;;;;;25.52;15.95;;;12.10;99.90;;;;;;5025349;28;20262;-81
2022/11/10 16:01:17;;;;;;;22.65;15.82;;;12.00;99.90;;;;;;5038869;28;20235;-81
2022/11/10 16:04:26;;;;;;;25.67;16.08;;;11.90;99.90;;;;;;5044854;28;20297;-81
2022/11/10 16:07:34;;;;;;;22.85;16.40;;;11.90;99.90;;;;;;5038382;28;20256;-81
2022/11/10 16:10:45;;;;;;;25.80;15.73;;;12.00;99.90;;;;;;5030220;28;20224;-80
2022/11/10 16:13:53;;;;;;;22.85;15.70;;;12.00;99.90;;;;;;5028555;28;20704;-80
2022/11/10 16:17:00;;;;;;;22.77;15.13;;;12.00;99.90;;;;;;5039436;28;20639;-81
2022/11/10 16:20:13;;;;;;;23.00;16.60;;;12.10;99.90;;;;;;5033498;28;20224;-81
2022/11/10 16:23:21;;;;;;;23.80;15.35;;;12.20;99.90;;;;;;5040976;28;20692;-80
2022/11/10 16:26:30;;;;;;;20.85;14.70;;;12.20;99.90;;;;;;5038775;28;20240;-80
2022/11/10 16:29:38;;;;;;;20.20;14.32;;;12.20;99.90;;;;;;5032281;28;20225;-80
2022/11/10 16:32:45;;;;;;;23.00;14.02;;;12.20;99.90;;;;;;5020727;28;20257;-82
2022/11/10 16:35:55;;;;;;;20.17;14.70;;;12.10;99.90;;;;;;5039686;28;20268;-80
2022/11/10 16:39:03;;;;;;;25.25;14.38;;;12.10;99.90;;;;;;5017960;28;20230;-80
2022/11/10 16:42:12;;;;;;;22.02;14.20;;;12.20;99.90;;;;;;5017984;28;20662;-81
2022/11/10 16:45:21;;;;;;;17.70;13.57;;;12.20;99.90;;;;;;5022641;28;20228;-81
2022/11/10 16:48:30;;;;;;;19.27;14.98;;;12.20;99.90;;;;;;5021123;28;20217;-81
2022/11/10 16:51:40;;;;;;;24.00;14.82;;;12.10;99.90;;;;;;5032357;28;20304;-81
2022/11/10 16:54:54;;;;;;;22.10;14.35;;;12.10;99.90;;;;;;5035864;28;20286;-82
2022/11/10 16:58:03;;;;;;;18.55;14.48;;;12.10;99.90;;;;;;5031207;28;20311;-81
2022/11/10 17:01:17;;;;;;;23.35;14.98;;;12.10;99.90;;;;;;5037072;28;20225;-81
2022/11/10 17:04:25;;;;;;;19.35;15.20;;;12.10;99.90;;;;;;5032169;28;21022;-82
2022/11/10 17:07:33;;;;;;;23.25;15.38;;;12.00;99.90;;;;;;5017353;28;20308;-81
2022/11/10 17:10:40;;;;;;;20.52;14.57;;;12.10;99.90;;;;;;5019454;28;20264;-82
2022/11/10 17:13:49;;;;;;;23.08;15.93;;;12.10;99.90;;;;;;5018050;28;20229;-81
2022/11/10 17:16:56;;;;;;;22.05;15.68;;;12.10;99.90;;;;;;5020411;28;20245;-81
2022/11/10 17:20:05;;;;;;;24.25;14.70;;;12.00;99.90;;;;;;5018778;28;20229;-82
2022/11/10 17:23:16;;;;;;;23.58;16.17;;;11.90;99.90;;;;;;5019358;28;20221;-81
2022/11/10 17:26:23;;;;;;;19.20;15.70;;;11.80;99.90;;;;;;5018823;28;20233;-82
2022/11/10 17:29:32;;;;;;;21.00;16.48;;;11.80;99.90;;;;;;5054058;28;20225;-82
2022/11/10 17:32:39;;;;;;;27.17;18.23;;;11.80;99.90;;;;;;5059869;28;20229;-81
2022/11/10 17:36:12;;;;;;;24.92;16.77;;;11.70;99.90;;;;;;5057541;28;20766;-79
2022/11/10 17:39:21;;;;;;;20.83;15.75;;;11.70;99.90;;;;;;5063811;28;20239;-79
2022/11/10 17:42:28;;;;;;;25.73;15.93;;;11.70;99.90;;;;;;5059993;28;20556;-79
2022/11/10 17:45:36;;;;;;;23.10;16.17;;;11.70;99.90;;;;;;5057354;28;20296;-80
2022/11/10 17:48:46;;;;;;;23.42;15.68;;;11.60;99.90;;;;;;5056596;28;20278;-80
2022/11/10 17:51:54;;;;;;;22.55;15.50;;;11.60;99.90;;;;;;5065664;28;20300;-79
2022/11/10 17:55:01;;;;;;;22.88;15.82;;;11.60;99.90;;;;;;5060814;28;20319;-80
2022/11/10 17:58:09;;;;;;;23.55;16.13;;;11.60;99.90;;;;;;5060742;28;20633;-80
2022/11/10 18:01:20;;;;;;;24.05;17.05;;;11.60;99.90;;;;;;5058392;28;20227;-81
2022/11/10 18:04:28;;;;;;;28.00;17.27;;;11.50;99.90;;;;;;5058594;28;20265;-80
2022/11/10 18:07:36;;;;;;;24.23;17.60;;;11.50;99.90;;;;;;5060257;28;20219;-80
2022/11/10 18:10:46;;;;;;;24.80;16.80;;;11.50;99.90;;;;;;5056556;28;20270;-80
2022/11/10 18:13:53;;;;;;;25.58;16.48;;;11.40;99.90;;;;;;5062952;28;20772;-80
2022/11/10 18:17:02;;;;;;;24.88;17.20;;;11.40;99.90;;;;;;5060581;28;20228;-81
2022/11/10 18:20:10;;;;;;;21.45;16.98;;;11.40;99.90;;;;;;5051733;28;21849;-80
2022/11/10 18:23:18;;;;;;;24.30;16.67;;;11.40;99.90;;;;;;5061054;28;20271;-81
2022/11/10 18:26:25;;;;;;;23.17;17.08;;;11.50;99.90;;;;;;5059283;28;20766;-80
2022/11/10 18:29:32;;;;;;;26.35;16.20;;;11.50;99.90;;;;;;5057217;28;20220;-84
2022/11/10 18:32:41;;;;;;;25.48;17.88;;;11.50;99.90;;;;;;5060420;28;20224;-82
2022/11/10 18:35:48;;;;;;;25.55;16.92;;;11.40;99.90;;;;;;5057034;28;20228;-81
2022/11/10 18:38:56;;;;;;;32.42;16.75;;;11.30;99.90;;;;;;5056661;28;20236;-81
2022/11/10 18:42:03;;;;;;;29.95;17.17;;;11.30;99.90;;;;;;5059692;28;20215;-81
2022/11/10 18:45:11;;;;;;;26.48;16.92;;;11.30;99.90;;;;;;5054099;28;20223;-82
2022/11/10 18:48:20;;;;;;;24.77;16.65;;;11.20;99.90;;;;;;5060296;28;20220;-81
2022/11/10 18:51:34;;;;;;;24.20;16.70;;;11.20;99.90;;;;;;5053861;28;21005;-80
2022/11/10 18:54:41;;;;;;;25.02;16.33;;;11.20;99.90;;;;;;5056689;28;20217;-80
2022/11/10 18:57:49;;;;;;;24.30;16.75;;;11.30;99.90;;;;;;5055914;28;20246;-81
2022/11/10 19:01:02;;;;;;;22.45;16.55;;;11.20;99.90;;;;;;5058482;28;20231;-82
2022/11/10 19:04:12;;;;;;;25.42;15.48;;;11.30;99.90;;;;;;5056963;28;20470;-79
2022/11/10 19:07:19;;;;;;;23.58;16.15;;;11.30;99.90;;;;;;5059393;28;20232;-80
2022/11/10 19:10:26;;;;;;;25.70;16.20;;;11.20;99.90;;;;;;5063976;28;20639;-84
2022/11/10 19:13:34;;;;;;;22.25;16.40;;;11.30;99.90;;;;;;5055152;28;20616;-81
2022/11/10 19:16:41;;;;;;;24.27;16.48;;;11.20;99.90;;;;;;5059914;28;20229;-78
2022/11/10 19:19:50;;;;;;;22.52;16.67;;;11.10;99.90;;;;;;5063241;28;20777;-82
2022/11/10 19:23:02;;;;;;;28.08;17.20;;;11.10;99.90;;;;;;5065048;28;20255;-82
2022/11/10 19:26:10;;;;;;;23.95;16.90;;;11.10;99.90;;;;;;5056221;28;20216;-81
2022/11/10 19:29:20;;;;;;;27.83;17.27;;;11.10;99.90;;;;;;5061091;28;20244;-81
2022/11/10 19:32:27;;;;;;;27.08;17.60;;;11.10;99.90;;;;;;5055569;28;20220;-81
2022/11/10 19:35:40;;;;;;;24.00;17.08;;;11.00;99.90;;;;;;5056836;28;20247;-81
2022/11/10 19:38:47;;;;;;;30.02;19.80;;;10.90;99.90;;;;;;5056483;28;20239;-81
2022/11/10 19:41:55;;;;;;;27.80;19.55;;;11.00;99.90;;;;;;5055991;28;20247;-80
2022/11/10 19:45:02;;;;;;;26.35;18.73;;;11.10;99.90;;;;;;5052331;28;20229;-81
2022/11/10 19:48:09;;;;;;;26.95;17.80;;;10.90;99.90;;;;;;5057202;28;20243;-81
2022/11/10 19:51:19;;;;;;;23.20;16.88;;;10.90;99.90;;;;;;5058206;28;20224;-83
2022/11/10 19:54:26;;;;;;;29.08;17.50;;;10.90;99.90;;;;;;5056711;28;20572;-82
2022/11/10 19:57:33;;;;;;;28.33;17.75;;;10.90;99.90;;;;;;5062088;28;20299;-82
2022/11/10 20:00:44;;;;;;;25.70;17.85;;;10.90;99.90;;;;;;5054428;28;20235;-82
2022/11/10 20:03:51;;;;;;;27.27;17.35;;;10.90;99.90;;;;;;5064062;28;20291;-82
2022/11/10 20:10:25;;;;;;;25.80;18.52;;;10.90;99.90;;;;;;5062185;28;20627;-85
2022/11/10 20:13:33;;;;;;;29.60;18.15;;;10.80;99.90;;;;;;5060054;28;20590;-86
2022/11/10 20:16:40;;;;;;;29.42;18.38;;;10.80;99.90;;;;;;5061904;28;20312;-85
2022/11/10 20:19:47;;;;;;;25.58;18.85;;;10.80;99.90;;;;;;5056571;28;20231;-85
2022/11/10 20:23:01;;;;;;;26.35;17.90;;;10.70;99.90;;;;;;5054070;28;20360;-84
2022/11/10 20:26:10;;;;;;;33.53;21.60;;;10.80;99.90;;;;;;5056048;28;20247;-86
2022/11/10 20:29:17;;;;;;;29.75;19.27;;;10.70;99.90;;;;;;5057501;28;20699;-85
2022/11/10 20:32:25;;;;;;;32.13;20.15;;;10.80;99.90;;;;;;5058932;28;20220;-85
2022/11/10 20:35:38;;;;;;;29.10;19.38;;;10.90;99.90;;;;;;5058652;28;20691;-85
2022/11/10 20:38:47;;;;;;;28.95;17.92;;;10.80;99.90;;;;;;5053305;28;21076;-84
2022/11/10 20:41:54;;;;;;;23.90;18.35;;;10.70;99.90;;;;;;5059756;28;20219;-85